Time;durP1;ratioP1;P1;durP2;ratioP2;P2;SDS_P1;SDS_P2;PMS_P1;PMS_P2;Temp;Humidity;BMP_temperature;BMP_pressure;BME280_temperature;BME280_humidity;BME280_pressure;Samples;Min_cycle;Max_cycle;Signal;HPM_P1;HPM_P2
2023/09/21 00:00:32;;;;;;;;;;;;;;;;;;7368326;19;1776;-64
2023/09/21 00:03:00;;;;;;;;;;;;;;;;;;7368986;19;1392;-63
2023/09/21 00:05:30;;;;;;;;;;;;;;;;;;7370432;19;1331;-64
2023/09/21 00:07:59;;;;;;;;;;;;;;;;;;7363237;19;1856;-63
2023/09/21 00:10:29;;;;;;;;;;;;;;;;;;7367925;19;1693;-64
2023/09/21 00:12:57;;;;;;;;;;;;;;;;;;7365367;19;749;-63
2023/09/21 00:15:29;;;;;;;;;;;;;;;;;;7364334;19;882;-65
2023/09/21 00:17:58;;;;;;;;;;;;;;;;;;7365214;19;1339;-64
2023/09/21 00:20:35;;;;;;;;;;;;;;;;;;7365283;19;1129;-64
2023/09/21 00:23:06;;;;;;;;;;;;;;;;;;7365277;19;1415;-64
2023/09/21 00:25:34;;;;;;;;;;;;;;;;;;7366997;19;1508;-63
2023/09/21 00:28:07;;;;;;;;;;;;;;;;;;7361758;19;1845;-69
2023/09/21 00:30:35;;;;;;;;;;;;;;;;;;7364732;19;747;-64
2023/09/21 00:33:07;;;;;;;;;;;;;;;;;;7363304;19;887;-64
2023/09/21 00:35:39;;;;;;;;;;;;;;;;;;7365773;19;1553;-63
2023/09/21 00:38:08;;;;;;;;;;;;;;;;;;7364543;19;2057;-63
2023/09/21 00:40:38;;;;;;;;;;;;;;;;;;7368075;19;1536;-64
2023/09/21 00:43:06;;;;;;;;;;;;;;;;;;7365399;19;1503;-64
2023/09/21 00:45:34;;;;;;;;;;;;;;;;;;7373930;19;1464;-63
2023/09/21 00:48:03;;;;;;;;;;;;;;;;;;7368305;19;1849;-63
2023/09/21 00:50:31;;;;;;;;;;;;;;;;;;7370751;19;1673;-63
2023/09/21 00:52:59;;;;;;;;;;;;;;;;;;7371049;19;1268;-63
2023/09/21 00:55:29;;;;;;;;;;;;;;;;;;7374241;19;1496;-63
2023/09/21 00:57:59;;;;;;;;;;;;;;;;;;7371062;19;1668;-63
2023/09/21 01:00:32;;;;;;;;;;;;;;;;;;7371664;19;2077;-63
2023/09/21 01:03:07;;;;;;;;;;;;;;;;;;7372887;19;1660;-63
2023/09/21 01:05:39;;;;;;;;;;;;;;;;;;7372681;19;1401;-64
2023/09/21 01:08:09;;;;;;;;;;;;;;;;;;7371516;19;1860;-63
2023/09/21 01:10:38;;;;;;;;;;;;;;;;;;7370110;19;714;-64
2023/09/21 01:13:07;;;;;;;;;;;;;;;;;;7372587;19;1884;-63
2023/09/21 01:15:35;;;;;;;;;;;;;;;;;;7370159;19;1329;-63
2023/09/21 01:18:07;;;;;;;;;;;;;;;;;;7372554;19;1789;-62
2023/09/21 01:20:37;;;;;;;;;;;;;;;;;;7370584;19;1112;-65
2023/09/21 01:23:08;;;;;;;;;;;;;;;;;;7372146;19;1978;-63
2023/09/21 01:25:38;;;;;;;;;;;;;;;;;;7367452;19;807;-65
2023/09/21 01:28:07;;;;;;;;;;;;;;;;;;7366748;19;1842;-63
2023/09/21 01:30:35;;;;;;;;;;;;;;;;;;7371035;19;1763;-64
2023/09/21 01:33:04;;;;;;;;;;;;;;;;;;7372130;19;1816;-64
2023/09/21 01:35:32;;;;;;;;;;;;;;;;;;7368796;19;770;-63
2023/09/21 01:38:00;;;;;;;;;;;;;;;;;;7371028;19;2050;-63
2023/09/21 01:40:29;;;;;;;;;;;;;;;;;;7371775;19;1852;-64
2023/09/21 01:42:58;;;;;;;;;;;;;;;;;;7367833;19;931;-63
2023/09/21 01:45:27;;;;;;;;;;;;;;;;;;7369997;19;1821;-63
2023/09/21 01:47:55;;;;;;;;;;;;;;;;;;7370757;19;1936;-65
2023/09/21 01:50:25;;;;;;;;;;;;;;;;;;7369046;19;864;-63
2023/09/21 01:52:53;;;;;;;;;;;;;;;;;;7368737;19;842;-64
2023/09/21 01:55:21;;;;;;;;;;;;;;;;;;7364163;19;823;-65
2023/09/21 01:57:49;;;;;;;;;;;;;;;;;;7368380;19;1710;-65
2023/09/21 02:00:26;;;;;;;;;;;;;;;;;;7369621;19;1992;-64
2023/09/21 02:02:55;;;;;;;;;;;;;;;;;;7371511;19;1432;-65
2023/09/21 02:05:23;;;;;;;;;;;;;;;;;;7369272;19;1918;-63
2023/09/21 02:07:52;;;;;;;;;;;;;;;;;;7367278;19;2154;-63
2023/09/21 02:10:20;;;;;;;;;;;;;;;;;;7369389;19;1588;-64
2023/09/21 02:12:48;;;;;;;;;;;;;;;;;;7369985;19;1209;-63
2023/09/21 02:15:17;;;;;;;;;;;;;;;;;;7366597;19;767;-64
2023/09/21 02:17:45;;;;;;;;;;;;;;;;;;7366535;19;1606;-63
2023/09/21 02:20:16;;;;;;;;;;;;;;;;;;7370077;19;1703;-63
2023/09/21 02:22:44;;;;;;;;;;;;;;;;;;7366547;19;793;-63
2023/09/21 02:25:13;;;;;;;;;;;;;;;;;;7365365;19;1889;-63
2023/09/21 02:27:41;;;;;;;;;;;;;;;;;;7369286;19;1854;-65
2023/09/21 02:30:13;;;;;;;;;;;;;;;;;;7368975;19;1487;-65
2023/09/21 02:32:41;;;;;;;;;;;;;;;;;;7366452;19;813;-64
2023/09/21 02:35:13;;;;;;;;;;;;;;;;;;7367278;19;820;-66
2023/09/21 02:37:41;;;;;;;;;;;;;;;;;;7367114;19;897;-64
2023/09/21 02:40:14;;;;;;;;;;;;;;;;;;7368080;19;727;-63
2023/09/21 02:42:42;;;;;;;;;;;;;;;;;;7367847;19;1740;-65
2023/09/21 02:45:11;;;;;;;;;;;;;;;;;;7370052;19;1814;-64
2023/09/21 02:47:40;;;;;;;;;;;;;;;;;;7364823;19;1851;-65
2023/09/21 02:50:14;;;;;;;;;;;;;;;;;;7368304;19;1777;-66
2023/09/21 02:52:42;;;;;;;;;;;;;;;;;;7369389;19;1706;-64
2023/09/21 02:55:11;;;;;;;;;;;;;;;;;;7369390;19;1909;-63
2023/09/21 02:57:40;;;;;;;;;;;;;;;;;;7365567;19;1742;-64
2023/09/21 03:00:21;;;;;;;;;;;;;;;;;;7370273;19;1801;-66
2023/09/21 03:02:49;;;;;;;;;;;;;;;;;;7369386;19;1514;-65
2023/09/21 03:05:17;;;;;;;;;;;;;;;;;;7365198;19;738;-65
2023/09/21 03:07:45;;;;;;;;;;;;;;;;;;7361727;19;1953;-66
2023/09/21 03:10:15;;;;;;;;;;;;;;;;;;7370532;19;1441;-64
2023/09/21 03:12:47;;;;;;;;;;;;;;;;;;7366959;19;717;-65
2023/09/21 03:15:15;;;;;;;;;;;;;;;;;;7366317;19;1649;-65
2023/09/21 03:17:44;;;;;;;;;;;;;;;;;;7368210;19;1519;-65
2023/09/21 03:20:13;;;;;;;;;;;;;;;;;;7368718;19;1901;-65
2023/09/21 03:22:41;;;;;;;;;;;;;;;;;;7366202;19;857;-65
2023/09/21 03:25:11;;;;;;;;;;;;;;;;;;7365019;19;779;-66
2023/09/21 03:27:40;;;;;;;;;;;;;;;;;;7367605;19;1866;-64
2023/09/21 03:30:11;;;;;;;;;;;;;;;;;;7365130;19;845;-61
2023/09/21 03:32:40;;;;;;;;;;;;;;;;;;7365807;19;815;-65
2023/09/21 03:35:11;;;;;;;;;;;;;;;;;;7366693;19;1848;-64
2023/09/21 03:37:41;;;;;;;;;;;;;;;;;;7368150;19;1591;-65
2023/09/21 03:40:09;;;;;;;;;;;;;;;;;;7364793;19;788;-64
2023/09/21 03:42:37;;;;;;;;;;;;;;;;;;7365306;19;893;-65
2023/09/21 03:45:07;;;;;;;;;;;;;;;;;;7365369;19;1842;-64
2023/09/21 03:47:35;;;;;;;;;;;;;;;;;;7366365;19;1835;-64
2023/09/21 03:50:06;;;;;;;;;;;;;;;;;;7361666;19;1325;-65
2023/09/21 03:52:36;;;;;;;;;;;;;;;;;;7369215;19;1559;-65
2023/09/21 03:55:06;;;;;;;;;;;;;;;;;;7366986;19;2218;-66
2023/09/21 03:57:34;;;;;;;;;;;;;;;;;;7363656;19;1602;-65
2023/09/21 04:00:16;;;;;;;;;;;;;;;;;;7365677;19;1466;-65
2023/09/21 04:02:45;;;;;;;;;;;;;;;;;;7364636;19;788;-65
2023/09/21 04:05:14;;;;;;;;;;;;;;;;;;7365286;19;864;-65
2023/09/21 04:07:42;;;;;;;;;;;;;;;;;;7361248;19;1875;-64
2023/09/21 04:10:11;;;;;;;;;;;;;;;;;;7367659;19;1429;-65
2023/09/21 04:12:40;;;;;;;;;;;;;;;;;;7366002;19;1438;-64
2023/09/21 04:15:08;;;;;;;;;;;;;;;;;;7364652;19;1840;-64
2023/09/21 04:17:36;;;;;;;;;;;;;;;;;;7364371;19;853;-62
2023/09/21 04:20:09;;;;;;;;;;;;;;;;;;7367168;19;1261;-63
2023/09/21 04:22:37;;;;;;;;;;;;;;;;;;7372041;19;1782;-64
2023/09/21 04:25:09;;;;;;;;;;;;;;;;;;7369467;19;1724;-66
2023/09/21 04:27:38;;;;;;;;;;;;;;;;;;7372859;19;1842;-64
2023/09/21 04:30:08;;;;;;;;;;;;;;;;;;7369969;19;1269;-63
2023/09/21 04:32:38;;;;;;;;;;;;;;;;;;7369958;19;825;-64
2023/09/21 04:35:07;;;;;;;;;;;;;;;;;;7368326;19;2017;-63
2023/09/21 04:37:38;;;;;;;;;;;;;;;;;;7370631;19;1624;-64
2023/09/21 04:40:09;;;;;;;;;;;;;;;;;;7371325;19;1669;-63
2023/09/21 04:42:38;;;;;;;;;;;;;;;;;;7369779;19;814;-62
2023/09/21 04:45:09;;;;;;;;;;;;;;;;;;7369116;19;813;-63
2023/09/21 04:47:37;;;;;;;;;;;;;;;;;;7368645;19;1861;-67
2023/09/21 04:50:05;;;;;;;;;;;;;;;;;;7370855;19;1380;-64
2023/09/21 04:52:33;;;;;;;;;;;;;;;;;;7369441;19;810;-65
2023/09/21 04:55:03;;;;;;;;;;;;;;;;;;7367977;19;1635;-64
2023/09/21 04:57:31;;;;;;;;;;;;;;;;;;7370461;19;1686;-64
2023/09/21 04:59:59;;;;;;;;;;;;;;;;;;7370171;19;1880;-63
2023/09/21 05:02:27;;;;;;;;;;;;;;;;;;7369991;19;893;-64
2023/09/21 05:04:56;;;;;;;;;;;;;;;;;;7367809;19;1730;-64
2023/09/21 05:07:24;;;;;;;;;;;;;;;;;;7371001;19;1857;-64
2023/09/21 05:09:52;;;;;;;;;;;;;;;;;;7368312;19;1734;-63
2023/09/21 05:12:21;;;;;;;;;;;;;;;;;;7374527;19;1287;-65
2023/09/21 05:14:50;;;;;;;;;;;;;;;;;;7367535;19;1671;-63
2023/09/21 05:17:18;;;;;;;;;;;;;;;;;;7374001;19;1710;-63
2023/09/21 05:19:46;;;;;;;;;;;;;;;;;;7368802;19;1405;-64
2023/09/21 05:22:15;;;;;;;;;;;;;;;;;;7373090;19;1346;-62
2023/09/21 05:24:43;;;;;;;;;;;;;;;;;;7371816;19;1511;-63
2023/09/21 05:27:11;;;;;;;;;;;;;;;;;;7375124;19;1480;-63
2023/09/21 05:29:40;;;;;;;;;;;;;;;;;;7366876;19;1837;-64
2023/09/21 05:32:08;;;;;;;;;;;;;;;;;;7370331;19;928;-64
2023/09/21 05:34:36;;;;;;;;;;;;;;;;;;7370916;19;2014;-63
2023/09/21 05:37:04;;;;;;;;;;;;;;;;;;7373181;19;1505;-63
2023/09/21 05:39:32;;;;;;;;;;;;;;;;;;7367107;19;1849;-64
2023/09/21 05:42:00;;;;;;;;;;;;;;;;;;7371531;19;1522;-63
2023/09/21 05:44:29;;;;;;;;;;;;;;;;;;7369969;19;1579;-64
2023/09/21 05:46:57;;;;;;;;;;;;;;;;;;7372774;19;1105;-62
2023/09/21 05:49:27;;;;;;;;;;;;;;;;;;7367198;19;1899;-62
2023/09/21 05:51:56;;;;;;;;;;;;;;;;;;7372041;19;1793;-62
2023/09/21 05:54:25;;;;;;;;;;;;;;;;;;7371312;19;1742;-63
2023/09/21 05:56:53;;;;;;;;;;;;;;;;;;7366851;19;806;-62
2023/09/21 05:59:22;;;;;;;;;;;;;;;;;;7366805;19;1289;-63
2023/09/21 06:01:51;;;;;;;;;;;;;;;;;;7370811;19;1810;-63
2023/09/21 06:04:21;;;;;;;;;;;;;;;;;;7372984;19;1611;-67
2023/09/21 06:06:49;;;;;;;;;;;;;;;;;;7368664;19;766;-61
2023/09/21 06:09:19;;;;;;;;;;;;;;;;;;7366303;19;1870;-63
2023/09/21 06:11:48;;;;;;;;;;;;;;;;;;7369522;19;1538;-64
2023/09/21 06:14:17;;;;;;;;;;;;;;;;;;7372166;19;1844;-64
2023/09/21 06:16:45;;;;;;;;;;;;;;;;;;7368009;19;804;-64
2023/09/21 06:19:13;;;;;;;;;;;;;;;;;;7367105;19;1537;-62
2023/09/21 06:21:42;;;;;;;;;;;;;;;;;;7369107;19;1718;-67
2023/09/21 06:24:10;;;;;;;;;;;;;;;;;;7367396;19;1793;-64
2023/09/21 06:26:38;;;;;;;;;;;;;;;;;;7369845;19;1996;-63
2023/09/21 06:29:06;;;;;;;;;;;;;;;;;;7367815;19;1981;-63
2023/09/21 06:31:35;;;;;;;;;;;;;;;;;;7369883;19;1946;-63
2023/09/21 06:34:07;;;;;;;;;;;;;;;;;;7368045;19;1445;-63
2023/09/21 06:36:37;;;;;;;;;;;;;;;;;;7364676;19;755;-64
2023/09/21 06:39:06;;;;;;;;;;;;;;;;;;7366269;19;1337;-64
2023/09/21 06:41:34;;;;;;;;;;;;;;;;;;7366288;19;793;-63
2023/09/21 06:44:02;;;;;;;;;;;;;;;;;;7367641;19;814;-63
2023/09/21 06:46:31;;;;;;;;;;;;;;;;;;7365516;19;879;-64
2023/09/21 06:49:02;;;;;;;;;;;;;;;;;;7365038;19;1862;-64
2023/09/21 06:51:30;;;;;;;;;;;;;;;;;;7367600;19;833;-64
2023/09/21 06:54:00;;;;;;;;;;;;;;;;;;7367323;19;1891;-64
2023/09/21 06:56:31;;;;;;;;;;;;;;;;;;7370751;19;1939;-64
2023/09/21 06:58:59;;;;;;;;;;;;;;;;;;7369540;19;1581;-64
2023/09/21 07:01:28;;;;;;;;;;;;;;;;;;7369368;19;1694;-67
2023/09/21 07:03:57;;;;;;;;;;;;;;;;;;7370539;19;1751;-66
2023/09/21 07:06:25;;;;;;;;;;;;;;;;;;7369121;19;2081;-66
2023/09/21 07:08:53;;;;;;;;;;;;;;;;;;7366084;19;1864;-67
2023/09/21 07:11:21;;;;;;;;;;;;;;;;;;7369011;19;1757;-67
2023/09/21 07:13:51;;;;;;;;;;;;;;;;;;7367793;19;1885;-68
2023/09/21 07:16:22;;;;;;;;;;;;;;;;;;7371374;19;1457;-67
2023/09/21 07:18:50;;;;;;;;;;;;;;;;;;7365869;19;1922;-69
2023/09/21 07:21:18;;;;;;;;;;;;;;;;;;7371631;19;1728;-68
2023/09/21 07:23:46;;;;;;;;;;;;;;;;;;7370847;19;1610;-68
2023/09/21 07:26:14;;;;;;;;;;;;;;;;;;7366890;19;1759;-68
2023/09/21 07:28:44;;;;;;;;;;;;;;;;;;7369332;19;1855;-67
2023/09/21 07:31:12;;;;;;;;;;;;;;;;;;7369812;19;999;-71
2023/09/21 07:33:40;;;;;;;;;;;;;;;;;;7370283;19;2085;-69
2023/09/21 07:36:11;;;;;;;;;;;;;;;;;;7370231;19;1528;-70
2023/09/21 07:38:39;;;;;;;;;;;;;;;;;;7365381;19;1272;-67
2023/09/21 07:41:08;;;;;;;;;;;;;;;;;;7368428;19;1969;-68
2023/09/21 07:43:36;;;;;;;;;;;;;;;;;;7369844;19;1647;-68
2023/09/21 07:46:05;;;;;;;;;;;;;;;;;;7366939;19;1724;-67
2023/09/21 07:48:33;;;;;;;;;;;;;;;;;;7367497;19;1841;-68
2023/09/21 07:51:01;;;;;;;;;;;;;;;;;;7366472;19;869;-67
2023/09/21 07:53:29;;;;;;;;;;;;;;;;;;7370348;19;1566;-66
2023/09/21 07:55:57;;;;;;;;;;;;;;;;;;7375974;19;1452;-67
2023/09/21 07:58:26;;;;;;;;;;;;;;;;;;7376144;19;1652;-68
2023/09/21 08:00:54;;;;;;;;;;;;;;;;;;7373785;19;1749;-67
2023/09/21 08:03:25;;;;;;;;;;;;;;;;;;7376081;19;1576;-67
2023/09/21 08:05:53;;;;;;;;;;;;;;;;;;7373474;19;1536;-67
2023/09/21 08:08:21;;;;;;;;;;;;;;;;;;7374556;19;1845;-65
2023/09/21 08:10:50;;;;;;;;;;;;;;;;;;7372918;19;2124;-63
2023/09/21 08:13:18;;;;;;;;;;;;;;;;;;7373069;19;1761;-65
2023/09/21 08:15:46;;;;;;;;;;;;;;;;;;7374829;19;1221;-69
2023/09/21 08:18:15;;;;;;;;;;;;;;;;;;7373988;19;1703;-63
2023/09/21 08:20:43;;;;;;;;;;;;;;;;;;7373464;19;1638;-64
2023/09/21 08:23:11;;;;;;;;;;;;;;;;;;7372422;19;1046;-64
2023/09/21 08:25:39;;;;;;;;;;;;;;;;;;7371251;19;1711;-64
2023/09/21 08:28:08;;;;;;;;;;;;;;;;;;7375222;19;1465;-66
2023/09/21 08:30:36;;;;;;;;;;;;;;;;;;7370352;19;1860;-65
2023/09/21 08:33:07;;;;;;;;;;;;;;;;;;7373515;19;1745;-65
2023/09/21 08:35:35;;;;;;;;;;;;;;;;;;7373502;19;2075;-65
2023/09/21 08:38:03;;;;;;;;;;;;;;;;;;7373052;19;1718;-65
2023/09/21 08:40:31;;;;;;;;;;;;;;;;;;7375568;19;1640;-64
2023/09/21 08:43:00;;;;;;;;;;;;;;;;;;7374324;19;1697;-65
2023/09/21 08:45:28;;;;;;;;;;;;;;;;;;7370410;19;1977;-65
2023/09/21 08:47:56;;;;;;;;;;;;;;;;;;7375091;19;1768;-63
2023/09/21 08:50:24;;;;;;;;;;;;;;;;;;7369127;19;1846;-60
2023/09/21 08:52:53;;;;;;;;;;;;;;;;;;7370635;19;1881;-64
2023/09/21 08:55:21;;;;;;;;;;;;;;;;;;7374188;19;1644;-62
2023/09/21 08:57:49;;;;;;;;;;;;;;;;;;7373777;19;1995;-61
2023/09/21 09:00:19;;;;;;;;;;;;;;;;;;7374416;19;1741;-60
2023/09/21 09:02:47;;;;;;;;;;;;;;;;;;7373359;19;1979;-61
2023/09/21 09:05:15;;;;;;;;;;;;;;;;;;7372842;19;1239;-61
2023/09/21 09:07:43;;;;;;;;;;;;;;;;;;7370677;19;2107;-60
2023/09/21 09:10:12;;;;;;;;;;;;;;;;;;7372913;19;1857;-61
2023/09/21 09:12:40;;;;;;;;;;;;;;;;;;7371572;19;1999;-60
2023/09/21 09:15:09;;;;;;;;;;;;;;;;;;7372925;19;1660;-61
2023/09/21 09:17:39;;;;;;;;;;;;;;;;;;7370707;19;1922;-61
2023/09/21 09:20:07;;;;;;;;;;;;;;;;;;7371010;19;1937;-60
2023/09/21 09:22:35;;;;;;;;;;;;;;;;;;7373890;19;1689;-60
2023/09/21 09:25:04;;;;;;;;;;;;;;;;;;7373418;19;1456;-61
2023/09/21 09:27:32;;;;;;;;;;;;;;;;;;7370703;19;869;-61
2023/09/21 09:30:00;;;;;;;;;;;;;;;;;;7368785;19;1853;-60
2023/09/21 09:32:37;;;;;;;;;;;;;;;;;;7371234;19;1941;-60
2023/09/21 09:35:05;;;;;;;;;;;;;;;;;;7373145;19;1677;-58
2023/09/21 09:37:34;;;;;;;;;;;;;;;;;;7369427;19;1713;-61
2023/09/21 09:40:12;;;;;;;;;;;;;;;;;;7370388;19;1742;-62
2023/09/21 09:42:40;;;;;;;;;;;;;;;;;;7373697;19;1560;-59
2023/09/21 09:45:08;;;;;;;;;;;;;;;;;;7368935;19;1952;-61
2023/09/21 09:47:37;;;;;;;;;;;;;;;;;;7372837;19;1482;-57
2023/09/21 09:50:06;;;;;;;;;;;;;;;;;;7366662;19;1854;-59
2023/09/21 09:52:34;;;;;;;;;;;;;;;;;;7370282;19;784;-61
2023/09/21 09:55:05;;;;;;;;;;;;;;;;;;7369862;19;826;-61
2023/09/21 09:57:33;;;;;;;;;;;;;;;;;;7370273;19;736;-60
2023/09/21 10:00:15;;;;;;;;;;;;;;;;;;7367625;19;1276;-60
2023/09/21 10:02:43;;;;;;;;;;;;;;;;;;7370008;19;777;-60
2023/09/21 10:05:12;;;;;;;;;;;;;;;;;;7368780;19;1039;-59
2023/09/21 10:07:40;;;;;;;;;;;;;;;;;;7369992;19;924;-58
2023/09/21 10:10:15;;;;;;;;;;;;;;;;;;7366662;19;1871;-59
2023/09/21 10:12:43;;;;;;;;;;;;;;;;;;7368823;19;783;-58
2023/09/21 10:15:13;;;;;;;;;;;;;;;;;;7368615;19;822;-59
2023/09/21 10:17:42;;;;;;;;;;;;;;;;;;7364782;19;1592;-58
2023/09/21 10:20:14;;;;;;;;;;;;;;;;;;7368588;19;1909;-60
2023/09/21 10:22:44;;;;;;;;;;;;;;;;;;7371790;19;1667;-60
2023/09/21 10:25:12;;;;;;;;;;;;;;;;;;7371947;19;1702;-62
2023/09/21 10:27:46;;;;;;;;;;;;;;;;;;7371215;19;1506;-58
2023/09/21 10:30:15;;;;;;;;;;;;;;;;;;7371189;19;1846;-60
2023/09/21 10:32:41;;;;;;;;;;;;;;;;;;7368347;19;868;-60
2023/09/21 10:35:09;;;;;;;;;;;;;;;;;;7368593;19;1726;-60
2023/09/21 10:37:39;;;;;;;;;;;;;;;;;;7372258;19;1681;-60
2023/09/21 10:40:08;;;;;;;;;;;;;;;;;;7368117;19;1769;-60
2023/09/21 10:42:36;;;;;;;;;;;;;;;;;;7369847;19;1509;-62
2023/09/21 10:45:07;;;;;;;;;;;;;;;;;;7368029;19;974;-59
2023/09/21 10:47:35;;;;;;;;;;;;;;;;;;7368305;19;723;-61
2023/09/21 10:50:03;;;;;;;;;;;;;;;;;;7365367;19;1862;-61
2023/09/21 10:52:32;;;;;;;;;;;;;;;;;;7367859;19;1670;-59
2023/09/21 10:55:01;;;;;;;;;;;;;;;;;;7370682;19;1066;-56
2023/09/21 10:57:29;;;;;;;;;;;;;;;;;;7371961;19;1299;-61
2023/09/21 10:59:59;;;;;;;;;;;;;;;;;;7366082;19;1353;-60
2023/09/21 11:02:27;;;;;;;;;;;;;;;;;;7370876;19;1671;-60
2023/09/21 11:04:57;;;;;;;;;;;;;;;;;;7370542;19;1425;-60
2023/09/21 11:07:25;;;;;;;;;;;;;;;;;;7371865;19;1450;-61
2023/09/21 11:09:53;;;;;;;;;;;;;;;;;;7366524;19;1856;-61
2023/09/21 11:12:21;;;;;;;;;;;;;;;;;;7371486;19;1808;-61
2023/09/21 11:14:49;;;;;;;;;;;;;;;;;;7366458;19;913;-63
2023/09/21 11:17:18;;;;;;;;;;;;;;;;;;7366767;19;1671;-63
2023/09/21 11:19:46;;;;;;;;;;;;;;;;;;7368381;19;1676;-62
2023/09/21 11:22:15;;;;;;;;;;;;;;;;;;7370400;19;1682;-62
2023/09/21 11:24:43;;;;;;;;;;;;;;;;;;7366528;19;2104;-62
2023/09/21 11:27:11;;;;;;;;;;;;;;;;;;7367761;19;1746;-63
2023/09/21 11:29:41;;;;;;;;;;;;;;;;;;7366987;19;1859;-63
2023/09/21 11:32:10;;;;;;;;;;;;;;;;;;7367026;19;1552;-61
2023/09/21 11:34:39;;;;;;;;;;;;;;;;;;7368515;19;1554;-62
2023/09/21 11:37:08;;;;;;;;;;;;;;;;;;7370025;19;1708;-63
2023/09/21 11:39:36;;;;;;;;;;;;;;;;;;7366908;19;1522;-62
2023/09/21 11:42:04;;;;;;;;;;;;;;;;;;7366105;19;1689;-63
2023/09/21 11:44:32;;;;;;;;;;;;;;;;;;7369194;19;1653;-64
2023/09/21 11:47:01;;;;;;;;;;;;;;;;;;7370388;19;1399;-59
2023/09/21 11:49:29;;;;;;;;;;;;;;;;;;7369010;19;1841;-62
2023/09/21 11:51:58;;;;;;;;;;;;;;;;;;7366375;19;767;-64
2023/09/21 11:54:26;;;;;;;;;;;;;;;;;;7366490;19;830;-62
2023/09/21 11:56:54;;;;;;;;;;;;;;;;;;7367516;19;858;-62
2023/09/21 11:59:23;;;;;;;;;;;;;;;;;;7367380;19;2060;-62
2023/09/21 12:01:55;;;;;;;;;;;;;;;;;;7369979;19;1644;-63
2023/09/21 12:04:25;;;;;;;;;;;;;;;;;;7367919;19;734;-62
2023/09/21 12:06:53;;;;;;;;;;;;;;;;;;7365278;19;837;-63
2023/09/21 12:09:22;;;;;;;;;;;;;;;;;;7367108;19;1855;-63
2023/09/21 12:11:54;;;;;;;;;;;;;;;;;;7366387;19;1413;-62
2023/09/21 12:14:22;;;;;;;;;;;;;;;;;;7370055;19;1433;-62
2023/09/21 12:16:53;;;;;;;;;;;;;;;;;;7366555;19;751;-62
2023/09/21 12:19:23;;;;;;;;;;;;;;;;;;7367038;19;1521;-62
2023/09/21 12:21:51;;;;;;;;;;;;;;;;;;7365993;19;900;-61
2023/09/21 12:24:21;;;;;;;;;;;;;;;;;;7365426;19;766;-61
2023/09/21 12:26:49;;;;;;;;;;;;;;;;;;7369749;19;1926;-63
2023/09/21 12:29:18;;;;;;;;;;;;;;;;;;7368048;19;1329;-63
2023/09/21 12:31:46;;;;;;;;;;;;;;;;;;7366464;19;1854;-64
2023/09/21 12:34:15;;;;;;;;;;;;;;;;;;7367759;19;1223;-59
2023/09/21 12:36:48;;;;;;;;;;;;;;;;;;7365379;19;801;-60
2023/09/21 12:39:16;;;;;;;;;;;;;;;;;;7367534;19;1788;-60
2023/09/21 12:41:45;;;;;;;;;;;;;;;;;;7371527;19;812;-59
2023/09/21 12:44:13;;;;;;;;;;;;;;;;;;7371414;19;726;-57
2023/09/21 12:46:41;;;;;;;;;;;;;;;;;;7371130;19;818;-57
2023/09/21 12:49:09;;;;;;;;;;;;;;;;;;7370312;19;1408;-58
2023/09/21 12:51:37;;;;;;;;;;;;;;;;;;7371308;19;1845;-59
2023/09/21 12:54:07;;;;;;;;;;;;;;;;;;7370700;19;879;-59
2023/09/21 12:56:35;;;;;;;;;;;;;;;;;;7370138;19;871;-58
2023/09/21 12:59:04;;;;;;;;;;;;;;;;;;7370240;19;1818;-60
2023/09/21 13:01:32;;;;;;;;;;;;;;;;;;7373368;19;1473;-59
2023/09/21 13:04:00;;;;;;;;;;;;;;;;;;7370356;19;796;-59
2023/09/21 13:06:29;;;;;;;;;;;;;;;;;;7369821;19;833;-59
2023/09/21 13:08:57;;;;;;;;;;;;;;;;;;7369608;19;1357;-59
2023/09/21 13:11:25;;;;;;;;;;;;;;;;;;7368489;19;1838;-61
2023/09/21 13:13:53;;;;;;;;;;;;;;;;;;7372126;19;2105;-60
2023/09/21 13:16:21;;;;;;;;;;;;;;;;;;7371402;19;1574;-61
2023/09/21 13:18:50;;;;;;;;;;;;;;;;;;7372442;19;1624;-61
2023/09/21 13:21:18;;;;;;;;;;;;;;;;;;7373936;19;1443;-63
2023/09/21 13:23:47;;;;;;;;;;;;;;;;;;7369834;19;798;-61
2023/09/21 13:26:16;;;;;;;;;;;;;;;;;;7371032;19;1771;-61
2023/09/21 13:28:44;;;;;;;;;;;;;;;;;;7371053;19;1507;-61
2023/09/21 13:31:13;;;;;;;;;;;;;;;;;;7366923;19;1850;-61
2023/09/21 13:33:41;;;;;;;;;;;;;;;;;;7372414;19;1478;-60
2023/09/21 13:36:09;;;;;;;;;;;;;;;;;;7369580;19;1688;-60
2023/09/21 13:38:37;;;;;;;;;;;;;;;;;;7368525;19;1348;-60
2023/09/21 13:41:05;;;;;;;;;;;;;;;;;;7371062;19;1645;-60
2023/09/21 13:43:34;;;;;;;;;;;;;;;;;;7371377;19;1893;-60
2023/09/21 13:46:03;;;;;;;;;;;;;;;;;;7372836;19;1846;-59
2023/09/21 13:48:32;;;;;;;;;;;;;;;;;;7368573;19;1342;-61
2023/09/21 13:51:00;;;;;;;;;;;;;;;;;;7366882;19;1846;-59
2023/09/21 13:53:28;;;;;;;;;;;;;;;;;;7369795;19;820;-60
2023/09/21 13:55:56;;;;;;;;;;;;;;;;;;7368574;19;809;-60
2023/09/21 13:58:24;;;;;;;;;;;;;;;;;;7368730;19;1751;-60
2023/09/21 14:00:53;;;;;;;;;;;;;;;;;;7372889;19;1563;-60
2023/09/21 14:03:21;;;;;;;;;;;;;;;;;;7369392;19;810;-60
2023/09/21 14:05:49;;;;;;;;;;;;;;;;;;7368139;19;791;-60
2023/09/21 14:08:22;;;;;;;;;;;;;;;;;;7369418;19;1599;-60
2023/09/21 14:10:50;;;;;;;;;;;;;;;;;;7370868;19;1858;-61
2023/09/21 14:13:18;;;;;;;;;;;;;;;;;;7372565;19;1449;-60
2023/09/21 14:15:47;;;;;;;;;;;;;;;;;;7368030;19;774;-59
2023/09/21 14:18:15;;;;;;;;;;;;;;;;;;7369077;19;1930;-61
2023/09/21 14:20:43;;;;;;;;;;;;;;;;;;7371802;19;1465;-61
2023/09/21 14:23:11;;;;;;;;;;;;;;;;;;7368362;19;759;-60
2023/09/21 14:25:40;;;;;;;;;;;;;;;;;;7366865;19;805;-61
2023/09/21 14:28:08;;;;;;;;;;;;;;;;;;7369201;19;1622;-61
2023/09/21 14:30:36;;;;;;;;;;;;;;;;;;7369975;19;2044;-62
2023/09/21 14:33:07;;;;;;;;;;;;;;;;;;7371394;19;1727;-59
2023/09/21 14:35:35;;;;;;;;;;;;;;;;;;7369675;19;1736;-59
2023/09/21 14:38:04;;;;;;;;;;;;;;;;;;7366402;19;1899;-59
2023/09/21 14:40:32;;;;;;;;;;;;;;;;;;7370955;19;2159;-60
2023/09/21 14:43:00;;;;;;;;;;;;;;;;;;7368372;19;1916;-60
2023/09/21 14:45:28;;;;;;;;;;;;;;;;;;7370553;19;2030;-60
2023/09/21 14:47:56;;;;;;;;;;;;;;;;;;7369349;19;1774;-60
2023/09/21 14:50:25;;;;;;;;;;;;;;;;;;7369946;19;1860;-62
2023/09/21 14:52:53;;;;;;;;;;;;;;;;;;7369625;19;2000;-58
2023/09/21 14:55:21;;;;;;;;;;;;;;;;;;7371015;19;1681;-59
2023/09/21 14:57:49;;;;;;;;;;;;;;;;;;7371537;19;1327;-61
2023/09/21 15:00:19;;;;;;;;;;;;;;;;;;7367661;19;1703;-60
2023/09/21 15:02:47;;;;;;;;;;;;;;;;;;7367758;19;1968;-59
2023/09/21 15:05:15;;;;;;;;;;;;;;;;;;7369518;19;1688;-60
2023/09/21 15:07:43;;;;;;;;;;;;;;;;;;7369441;19;1712;-60
2023/09/21 15:10:11;;;;;;;;;;;;;;;;;;7366711;19;1591;-60
2023/09/21 15:12:40;;;;;;;;;;;;;;;;;;7366998;19;2005;-60
2023/09/21 15:15:08;;;;;;;;;;;;;;;;;;7370311;19;1725;-60
2023/09/21 15:17:36;;;;;;;;;;;;;;;;;;7371887;19;1609;-58
2023/09/21 15:20:04;;;;;;;;;;;;;;;;;;7366917;19;1870;-55
2023/09/21 15:22:32;;;;;;;;;;;;;;;;;;7370714;19;1315;-60
2023/09/21 15:25:01;;;;;;;;;;;;;;;;;;7368216;19;806;-60
2023/09/21 15:27:30;;;;;;;;;;;;;;;;;;7367440;19;810;-59
2023/09/21 15:29:59;;;;;;;;;;;;;;;;;;7364269;19;1327;-60
2023/09/21 15:32:27;;;;;;;;;;;;;;;;;;7366384;19;1947;-59
2023/09/21 15:34:55;;;;;;;;;;;;;;;;;;7366063;19;1590;-58
2023/09/21 15:37:26;;;;;;;;;;;;;;;;;;7370504;19;2164;-59
2023/09/21 15:39:54;;;;;;;;;;;;;;;;;;7367404;19;1883;-58
2023/09/21 15:42:22;;;;;;;;;;;;;;;;;;7369484;19;1606;-62
2023/09/21 15:44:51;;;;;;;;;;;;;;;;;;7369044;19;1533;-60
2023/09/21 15:47:19;;;;;;;;;;;;;;;;;;7368080;19;1824;-59
2023/09/21 15:49:47;;;;;;;;;;;;;;;;;;7367505;19;1491;-59
2023/09/21 15:52:15;;;;;;;;;;;;;;;;;;7364494;19;1843;-59
2023/09/21 15:54:43;;;;;;;;;;;;;;;;;;7365085;19;799;-58
2023/09/21 15:57:12;;;;;;;;;;;;;;;;;;7367055;19;820;-59
2023/09/21 15:59:40;;;;;;;;;;;;;;;;;;7364159;19;1321;-59
2023/09/21 16:02:09;;;;;;;;;;;;;;;;;;7367733;19;1983;-62
2023/09/21 16:04:38;;;;;;;;;;;;;;;;;;7368176;19;1462;-59
2023/09/21 16:07:06;;;;;;;;;;;;;;;;;;7366068;19;853;-57
2023/09/21 16:09:34;;;;;;;;;;;;;;;;;;7366066;19;1911;-58
2023/09/21 16:12:02;;;;;;;;;;;;;;;;;;7366409;19;1850;-59
2023/09/21 16:14:30;;;;;;;;;;;;;;;;;;7368958;19;1830;-60
2023/09/21 16:17:00;;;;;;;;;;;;;;;;;;7374682;19;1800;-59
2023/09/21 16:19:28;;;;;;;;;;;;;;;;;;7375151;19;1447;-59
2023/09/21 16:21:56;;;;;;;;;;;;;;;;;;7371675;19;853;-59
2023/09/21 16:24:25;;;;;;;;;;;;;;;;;;7370942;19;1671;-61
2023/09/21 16:26:56;;;;;;;;;;;;;;;;;;7375389;19;1947;-56
2023/09/21 16:29:24;;;;;;;;;;;;;;;;;;7373060;19;1348;-58
2023/09/21 16:31:53;;;;;;;;;;;;;;;;;;7370943;19;1813;-58
2023/09/21 16:34:21;;;;;;;;;;;;;;;;;;7371525;19;873;-58
2023/09/21 16:36:49;;;;;;;;;;;;;;;;;;7371579;19;1882;-60
2023/09/21 16:39:18;;;;;;;;;;;;;;;;;;7372175;19;1802;-58
2023/09/21 16:41:46;;;;;;;;;;;;;;;;;;7374573;19;1434;-65
2023/09/21 16:44:14;;;;;;;;;;;;;;;;;;7374947;19;1795;-67
2023/09/21 16:46:42;;;;;;;;;;;;;;;;;;7373283;19;1669;-66
2023/09/21 16:49:11;;;;;;;;;;;;;;;;;;7373489;19;1717;-67
2023/09/21 16:51:39;;;;;;;;;;;;;;;;;;7373305;19;1847;-67
2023/09/21 16:54:08;;;;;;;;;;;;;;;;;;7371069;19;846;-66
2023/09/21 16:56:36;;;;;;;;;;;;;;;;;;7370403;19;872;-66
2023/09/21 16:59:05;;;;;;;;;;;;;;;;;;7369227;19;1275;-66
2023/09/21 17:01:33;;;;;;;;;;;;;;;;;;7371334;19;1730;-66
2023/09/21 17:04:01;;;;;;;;;;;;;;;;;;7374088;19;1490;-66
2023/09/21 17:06:32;;;;;;;;;;;;;;;;;;7369952;19;782;-65
2023/09/21 17:09:00;;;;;;;;;;;;;;;;;;7369910;19;1805;-66
2023/09/21 17:11:29;;;;;;;;;;;;;;;;;;7372395;19;1857;-67
2023/09/21 17:13:57;;;;;;;;;;;;;;;;;;7370342;19;701;-66
2023/09/21 17:16:27;;;;;;;;;;;;;;;;;;7370381;19;1846;-65